Time;durP1;ratioP1;P1;durP2;ratioP2;P2;SDS_P1;SDS_P2;PMS_P1;PMS_P2;Temp;Humidity;BMP_temperature;BMP_pressure;BME280_temperature;BME280_humidity;BME280_pressure;Samples;Min_cycle;Max_cycle;Signal;HPM_P1;HPM_P2
2022/11/16 00:01:19;;;;;;;44.45;23.95;;;;;;;4.73;100.00;98792.69;1705388;84;21094;-75
2022/11/16 00:03:47;;;;;;;38.05;20.80;;;;;;;4.71;100.00;98790.26;1661879;85;20993;-75
2022/11/16 00:06:16;;;;;;;42.73;22.80;;;;;;;4.72;100.00;98793.78;1674542;85;21567;-76
2022/11/16 00:09:20;;;;;;;40.25;20.77;;;;;;;4.69;100.00;98794.38;1678700;85;21118;-75
2022/11/16 00:11:21;;;;;;;35.23;20.62;;;;;;;4.69;100.00;98788.39;1653269;85;20940;-75
2022/11/16 00:13:54;;;;;;;36.65;21.25;;;;;;;4.70;100.00;98782.40;1720003;83;20891;-75
2022/11/16 00:16:25;;;;;;;33.33;20.48;;;;;;;4.71;100.00;98779.38;1663012;85;20997;-75
2022/11/16 00:19:03;;;;;;;42.08;22.62;;;;;;;4.71;100.00;98779.38;1678061;85;20933;-75
2022/11/16 00:21:32;;;;;;;37.85;21.17;;;;;;;4.71;100.00;98774.50;1681513;85;21068;-75
2022/11/16 00:24:04;;;;;;;39.98;22.67;;;;;;;4.70;100.00;98771.52;1679330;85;21314;-75
2022/11/16 00:26:41;;;;;;;39.67;21.57;;;;;;;4.71;100.00;98772.59;1645762;84;21504;-75
2022/11/16 00:29:19;;;;;;;40.33;22.67;;;;;;;4.73;100.00;98760.05;1665694;84;20909;-75
2022/11/16 00:31:54;;;;;;;41.15;22.73;;;;;;;4.73;100.00;98760.05;1705818;82;20956;-75
2022/11/16 00:34:29;;;;;;;41.48;20.55;;;;;;;4.72;100.00;98748.92;1731761;81;20880;-74
2022/11/16 00:37:02;;;;;;;42.00;24.00;;;;;;;4.72;100.00;98748.92;1665956;84;20901;-75
2022/11/16 00:39:34;;;;;;;39.85;22.75;;;;;;;4.72;100.00;98747.56;1702477;84;21055;-75
2022/11/16 00:42:08;;;;;;;41.63;22.95;;;;;;;4.72;100.00;98751.64;1706140;82;20992;-75
2022/11/16 00:44:39;;;;;;;;;;;;;;;4.71;100.00;98742.68;1714272;82;20990;-76
2022/11/16 00:47:15;;;;;;;42.17;22.60;;;;;;;4.70;100.00;98738.90;1737870;81;20084;-75
2022/11/16 00:49:45;;;;;;;47.35;24.32;;;;;;;4.67;100.00;98737.58;1735136;82;21149;-75
2022/11/16 00:52:20;;;;;;;43.02;23.25;;;;;;;4.69;100.00;98730.48;1665104;84;20993;-75
2022/11/16 00:54:48;;;;;;;45.15;24.65;;;;;;;4.69;100.00;98735.37;1700173;84;21456;-75
2022/11/16 00:57:22;;;;;;;37.45;21.57;;;;;;;4.70;100.00;98732.10;1668893;84;20958;-75
2022/11/16 00:59:56;;;;;;;43.50;23.45;;;;;;;4.68;100.00;98719.36;1709236;83;21606;-76
2022/11/16 01:02:32;;;;;;;42.08;22.15;;;;;;;4.68;100.00;98719.36;1709153;82;21031;-75
2022/11/16 01:05:05;;;;;;;39.05;22.15;;;;;;;4.68;100.00;98723.44;1664932;84;21021;-75
2022/11/16 01:07:34;;;;;;;;;;;;;;;4.67;100.00;98720.45;1688287;85;21461;-75
2022/11/16 01:10:08;;;;;;;43.48;22.50;;;;;;;4.64;100.00;98721.31;1673792;85;20174;-75
2022/11/16 01:12:37;;;;;;;45.23;22.85;;;;;;;4.63;100.00;98718.33;1705133;83;21111;-75
2022/11/16 01:15:11;;;;;;;42.15;22.37;;;;;;;4.63;100.00;98714.80;1699409;84;21148;-76
2022/11/16 01:17:40;;;;;;;43.08;23.80;;;;;;;4.63;100.00;98707.46;1676393;83;20938;-76
2022/11/16 01:20:16;;;;;;;40.95;22.10;;;;;;;4.63;100.00;98708.82;1693455;83;20908;-74
2022/11/16 01:22:49;;;;;;;35.58;20.35;;;;;;;4.64;100.00;98691.41;1706734;82;20893;-74
2022/11/16 01:25:21;;;;;;;40.63;22.25;;;;;;;4.64;100.00;98691.41;1708126;82;20906;-74
2022/11/16 01:27:52;;;;;;;39.35;21.37;;;;;;;4.65;100.00;98694.38;1703243;82;21138;-74
2022/11/16 01:30:24;;;;;;;44.13;22.58;;;;;;;4.67;100.00;98695.99;1692203;84;20997;-74
2022/11/16 01:32:59;;;;;;;39.50;21.68;;;;;;;4.68;100.00;98687.53;1706784;83;20953;-74
2022/11/16 01:35:27;;;;;;;43.00;22.73;;;;;;;4.64;100.00;98685.97;1693099;84;20993;-74
2022/11/16 01:37:57;;;;;;;35.55;22.32;;;;;;;4.64;100.00;98685.97;1706800;83;20973;-74
2022/11/16 01:40:26;;;;;;;39.38;21.73;;;;;;;4.65;100.00;98689.49;1696604;84;21390;-74
2022/11/16 01:43:00;;;;;;;40.17;22.23;;;;;;;4.64;100.00;98686.52;1675311;84;20897;-74
2022/11/16 01:45:41;;;;;;;43.33;23.30;;;;;;;4.65;100.00;98684.86;1696805;84;21040;-74
2022/11/16 01:48:12;;;;;;;39.73;20.72;;;;;;;4.70;100.00;98691.31;1701415;84;21025;-74
2022/11/16 01:50:41;;;;;;;41.00;21.70;;;;;;;4.70;100.00;98691.31;1735625;82;21023;-71
2022/11/16 01:53:14;;;;;;;35.78;20.12;;;;;;;4.72;100.00;98690.47;1738344;82;21070;-72
2022/11/16 01:55:46;;;;;;;44.30;22.37;;;;;;;4.72;100.00;98687.20;1736578;82;21022;-71
2022/11/16 01:58:21;;;;;;;41.20;21.37;;;;;;;4.73;100.00;98683.92;1733910;82;20951;-71
2022/11/16 02:00:53;;;;;;;41.90;22.27;;;;;;;4.75;100.00;98678.45;1698081;84;21438;-71
2022/11/16 02:03:20;;;;;;;43.13;23.27;;;;;;;4.75;100.00;98681.72;1706932;83;21190;-75
2022/11/16 02:06:09;;;;;;;42.67;22.05;;;;;;;4.75;100.00;98683.08;1684328;84;21174;-76
2022/11/16 02:12:21;;;;;;;40.30;21.70;;;;;;;4.72;100.00;98672.25;1668818;85;20946;-76
2022/11/16 02:15:21;;;;;;;37.85;21.75;;;;;;;4.72;100.00;98664.09;1646868;85;21028;-75
2022/11/16 02:18:21;;;;;;;40.73;22.27;;;;;;;4.71;100.00;98664.39;1718460;82;20981;-75
2022/11/16 02:21:03;;;;;;;38.67;22.65;;;;;;;4.72;100.00;98658.65;1700275;82;21668;-75
2022/11/16 02:23:47;;;;;;;45.48;22.67;;;;;;;4.71;100.00;98657.04;1736646;82;21581;-75
2022/11/16 02:27:07;;;;;;;42.05;22.73;;;;;;;4.71;100.00;98652.16;1734111;82;21037;-75
2022/11/16 02:29:55;;;;;;;40.17;21.75;;;;;;;4.71;100.00;98654.31;1726270;82;21324;-75
2022/11/16 02:32:49;;;;;;;40.73;21.87;;;;;;;4.69;100.00;98663.33;1575890;84;21769;-75
2022/11/16 02:35:31;;;;;;;38.53;20.88;;;;;;;4.70;100.00;98668.20;1696202;83;22330;-74
2022/11/16 02:38:07;;;;;;;;;;;;;;;4.71;100.00;98668.46;1695447;84;20944;-77
2022/11/16 02:40:39;;;;;;;41.98;20.48;;;;;;;4.71;100.00;98663.83;1655999;85;20501;-75
2022/11/16 02:43:20;;;;;;;34.47;20.27;;;;;;;4.73;100.00;98673.86;1672548;84;21119;-74
2022/11/16 02:45:55;;;;;;;37.67;20.72;;;;;;;4.74;100.00;98668.67;1701713;84;21007;-73
2022/11/16 02:48:33;;;;;;;40.28;20.50;;;;;;;4.74;100.00;98670.59;1697516;84;20988;-75
2022/11/16 02:51:05;;;;;;;41.13;22.50;;;;;;;4.73;100.00;98662.98;1676624;84;20995;-74
2022/11/16 02:53:45;;;;;;;42.53;22.13;;;;;;;4.73;100.00;98662.98;1695421;84;20992;-74
2022/11/16 02:56:17;;;;;;;41.18;21.73;;;;;;;4.72;100.00;98659.20;1732685;81;21109;-75
2022/11/16 02:58:46;;;;;;;41.68;21.70;;;;;;;4.71;100.00;98658.95;1732146;82;20948;-74
2022/11/16 03:01:33;;;;;;;41.13;22.20;;;;;;;4.68;100.00;98657.63;1699900;82;21951;-75
2022/11/16 03:04:10;;;;;;;35.55;20.23;;;;;;;4.66;100.00;98658.48;1703829;82;20991;-74
2022/11/16 03:06:44;;;;;;;38.35;20.27;;;;;;;4.66;100.00;98658.48;1732511;82;21090;-75
2022/11/16 03:09:23;;;;;;;38.28;22.07;;;;;;;4.67;100.00;98652.49;1703856;84;21076;-75
2022/11/16 03:12:02;;;;;;;39.00;20.48;;;;;;;4.63;100.00;98658.52;1673066;84;20908;-74
2022/11/16 03:14:37;;;;;;;43.08;23.02;;;;;;;4.60;100.00;98659.16;1709827;82;21629;-74
2022/11/16 03:17:22;;;;;;;39.73;22.30;;;;;;;4.60;100.00;98659.16;1706503;82;21566;-73
2022/11/16 03:20:11;;;;;;;36.95;20.50;;;;;;;4.59;100.00;98654.82;1728320;82;20978;-73
2022/11/16 03:22:51;;;;;;;39.42;20.30;;;;;;;4.57;100.00;98658.94;1705626;82;20975;-74
2022/11/16 03:25:22;;;;;;;34.85;20.82;;;;;;;4.57;100.00;98659.75;1730354;82;20956;-74
2022/11/16 03:28:11;;;;;;;49.08;22.35;;;;;;;4.57;100.00;98654.86;1695465;84;21810;-74
2022/11/16 03:31:03;;;;;;;38.42;20.10;;;;;;;4.57;100.00;98650.23;1664677;84;20960;-74
2022/11/16 03:33:39;;;;;;;44.93;22.48;;;;;;;4.59;100.00;98636.34;1663696;84;20909;-74
2022/11/16 03:36:19;;;;;;;39.67;21.17;;;;;;;4.58;100.00;98638.26;1641975;84;21004;-73
2022/11/16 03:38:49;;;;;;;44.20;22.93;;;;;;;4.58;100.00;98638.26;1685430;84;21119;-76
2022/11/16 03:41:20;;;;;;;45.03;23.18;;;;;;;4.59;100.00;98639.88;1669494;84;21432;-73
2022/11/16 03:43:48;;;;;;;39.60;21.75;;;;;;;4.59;100.00;98639.88;1698106;84;20973;-74
2022/11/16 03:46:18;;;;;;;41.15;21.82;;;;;;;4.60;100.00;98633.33;1694768;84;21011;-74
2022/11/16 03:48:52;;;;;;;43.73;22.30;;;;;;;4.60;100.00;98633.33;1670657;84;20968;-74
2022/11/16 03:51:22;;;;;;;42.38;22.93;;;;;;;4.61;100.00;98631.42;1666831;84;20896;-74
2022/11/16 03:53:51;;;;;;;40.50;21.50;;;;;;;4.61;100.00;98631.42;1688668;84;21191;-74
2022/11/16 03:56:20;;;;;;;41.45;22.13;;;;;;;4.59;100.00;98628.19;1697010;84;20913;-73
2022/11/16 03:58:49;;;;;;;44.35;23.45;;;;;;;4.57;100.00;98631.20;1690303;84;20877;-74
2022/11/16 04:01:20;;;;;;;49.65;23.95;;;;;;;4.55;100.00;98617.11;1695861;84;21488;-77
2022/11/16 04:03:57;;;;;;;43.87;24.47;;;;;;;4.55;100.00;98608.95;1664618;84;20996;-74
2022/11/16 04:26:11;;;;;;;47.95;24.18;;;;;;;4.47;100.00;98604.20;1665786;84;20936;-78
2022/11/16 04:28:40;;;;;;;49.53;23.27;;;;;;;4.47;100.00;98606.92;1681810;83;20916;-77
2022/11/16 04:39:47;;;;;;;48.98;24.95;;;;;;;4.40;100.00;98588.03;1677770;83;21591;-73
2022/11/16 04:42:22;;;;;;;46.50;22.13;;;;;;;4.40;100.00;98588.03;1667339;82;21003;-79
2022/11/16 04:47:43;;;;;;;45.73;22.77;;;;;;;4.37;100.00;98582.64;1717946;81;21518;-76
2022/11/16 04:50:14;;;;;;;54.15;24.80;;;;;;;4.37;100.00;98581.28;1680421;84;20977;-73
2022/11/16 04:52:44;;;;;;;53.23;24.72;;;;;;;4.36;100.00;98574.23;1703601;82;21095;-73
2022/11/16 04:55:12;;;;;;;51.77;24.87;;;;;;;4.36;100.00;98566.63;1688550;82;20961;-72
2022/11/16 04:57:46;;;;;;;45.78;24.18;;;;;;;4.37;100.00;98570.96;1656919;85;20949;-73
2022/11/16 05:00:17;;;;;;;49.10;24.18;;;;;;;4.36;100.00;98570.70;1668980;82;21386;-73
2022/11/16 05:02:46;;;;;;;53.10;25.97;;;;;;;4.34;100.00;98564.22;1686346;82;20909;-76
2022/11/16 05:05:20;;;;;;;50.55;25.12;;;;;;;4.34;100.00;98565.58;1664024;82;21079;-76
2022/11/16 05:07:53;;;;;;;45.40;23.92;;;;;;;4.33;100.00;98565.31;1725565;81;20946;-80
2022/11/16 05:10:24;;;;;;;52.08;26.35;;;;;;;4.34;100.00;98564.22;1720679;82;20951;-76
2022/11/16 05:12:57;;;;;;;55.05;25.30;;;;;;;4.37;100.00;98564.98;1726734;82;21202;-77
2022/11/16 05:15:29;;;;;;;53.98;25.40;;;;;;;4.39;100.00;98561.41;1740667;80;20997;-76
2022/11/16 05:18:00;;;;;;;62.58;24.77;;;;;;;4.43;100.00;98561.06;1715605;81;21061;-75
2022/11/16 05:26:22;;;;;;;53.75;24.57;;;;;;;4.48;100.00;98552.82;1664302;82;21054;-83
2022/11/16 05:28:53;;;;;;;53.15;24.92;;;;;;;4.48;100.00;98555.54;1678714;84;20958;-78
2022/11/16 05:31:22;;;;;;;;;;;;;;;4.50;100.00;98552.52;1660468;84;21564;-78
2022/11/16 05:33:51;;;;;;;56.10;25.72;;;;;;;4.48;100.00;98548.74;1725932;81;20167;-76
2022/11/16 05:36:22;;;;;;;54.27;25.92;;;;;;;4.48;100.00;98548.74;1683227;82;20949;-77
2022/11/16 05:38:52;;;;;;;61.33;28.17;;;;;;;4.49;100.00;98551.71;1657092;84;20976;-77
2022/11/16 05:41:20;;;;;;;59.80;25.20;;;;;;;4.52;100.00;98549.76;1681506;84;20949;-78
2022/11/16 05:43:48;;;;;;;60.85;28.42;;;;;;;4.54;100.00;98545.37;1666038;84;20955;-79
2022/11/16 05:46:21;;;;;;;58.48;26.80;;;;;;;4.52;100.00;98542.96;1647262;85;20901;-78
2022/11/16 05:48:51;;;;;;;65.00;28.38;;;;;;;4.50;100.00;98543.01;1672534;85;20977;-79
2022/11/16 05:51:24;;;;;;;56.92;25.65;;;;;;;4.50;100.00;98543.01;1665173;84;22164;-76
2022/11/16 05:53:53;;;;;;;53.13;24.82;;;;;;;4.50;100.00;98537.58;1669216;84;21512;-88
2022/11/16 05:56:21;;;;;;;54.73;25.08;;;;;;;4.52;100.00;98544.87;1705677;84;21531;-79
2022/11/16 05:58:55;;;;;;;54.77;24.90;;;;;;;4.51;100.00;98542.70;1666321;84;21017;-77
2022/11/16 06:01:23;;;;;;;52.60;25.20;;;;;;;4.51;100.00;98542.70;1662235;83;21058;-76
2022/11/16 06:04:02;;;;;;;57.15;26.23;;;;;;;4.50;100.00;98537.58;1703991;82;21155;-75
2022/11/16 06:06:32;;;;;;;57.15;26.23;;;;;;;4.50;100.00;98532.94;1698223;82;21532;-78
2022/11/16 06:09:03;;;;;;;54.48;24.92;;;;;;;4.50;100.00;98531.58;1737656;81;21034;-75
2022/11/16 06:11:33;;;;;;;70.42;32.48;;;;;;;4.54;100.00;98534.50;1736844;81;21422;-73
2022/11/16 06:14:05;;;;;;;62.85;28.95;;;;;;;4.56;100.00;98530.37;1720367;81;21592;-74
2022/11/16 06:16:35;;;;;;;61.58;27.93;;;;;;;4.56;100.00;98530.37;1676557;84;21540;-74
2022/11/16 06:19:05;;;;;;;63.52;28.85;;;;;;;4.55;100.00;98531.48;1700634;84;21091;-73
2022/11/16 06:21:32;;;;;;;55.70;27.05;;;;;;;4.54;100.00;98532.59;1698476;84;21003;-75
2022/11/16 06:24:07;;;;;;;66.17;30.27;;;;;;;4.52;100.00;98534.81;1759217;81;21059;-74
2022/11/16 06:26:33;;;;;;;73.92;31.27;;;;;;;4.52;100.00;98534.81;1717139;82;20987;-74
2022/11/16 06:29:02;;;;;;;67.97;30.82;;;;;;;4.55;100.00;98534.76;1706188;82;21239;-73
2022/11/16 06:31:34;;;;;;;70.22;29.57;;;;;;;4.55;100.00;98529.33;1693392;83;21007;-73
2022/11/16 06:34:07;;;;;;;;;;;;;;;4.53;100.00;98532.89;1682858;83;20999;-73
2022/11/16 06:36:31;;;;;;;75.65;28.90;;;;;;;4.51;100.00;98535.11;1686226;82;20273;-73
2022/11/16 06:39:02;;;;;;;64.15;28.00;;;;;;;4.47;100.00;98531.38;1705807;83;20986;-73
2022/11/16 06:41:31;;;;;;;79.30;32.45;;;;;;;4.45;100.00;98533.03;1709100;82;21573;-84
2022/11/16 06:44:07;;;;;;;74.92;31.68;;;;;;;4.40;100.00;98525.53;1707739;82;21015;-74
2022/11/16 06:46:39;;;;;;;70.55;31.15;;;;;;;4.46;100.00;98522.42;1730018;81;21528;-77
2022/11/16 06:49:10;;;;;;;76.07;29.23;;;;;;;4.46;100.00;98522.42;1701384;82;21617;-83
2022/11/16 06:51:43;;;;;;;64.65;27.40;;;;;;;4.48;100.00;98515.33;1707534;82;20943;-77
2022/11/16 06:54:13;;;;;;;64.20;29.75;;;;;;;4.52;100.00;98514.42;1664954;84;21189;-82
2022/11/16 06:56:42;;;;;;;80.92;35.75;;;;;;;4.52;100.00;98514.42;1673627;84;21010;-75
2022/11/16 06:59:11;;;;;;;82.05;33.67;;;;;;;4.54;100.00;98512.77;1704939;82;21031;-75
2022/11/16 07:01:41;;;;;;;78.37;32.58;;;;;;;4.54;100.00;98512.21;1700489;84;22200;-74
2022/11/16 07:04:19;;;;;;;79.67;31.40;;;;;;;4.54;100.00;98516.28;1708127;82;21113;-76
2022/11/16 07:06:52;;;;;;;76.70;32.03;;;;;;;4.56;100.00;98513.27;1709673;82;20909;-74
2022/11/16 07:09:23;;;;;;;77.82;32.80;;;;;;;4.55;100.00;98516.54;1730465;82;21011;-77
2022/11/16 07:12:03;;;;;;;73.37;31.97;;;;;;;4.57;100.00;98517.59;1737174;82;21019;-73
2022/11/16 07:14:35;;;;;;;76.67;30.15;;;;;;;4.54;100.00;98514.92;1736858;82;21050;-74
2022/11/16 07:17:06;;;;;;;67.47;29.00;;;;;;;4.57;100.00;98517.59;1733171;82;21032;-74
2022/11/16 07:19:38;;;;;;;57.30;25.27;;;;;;;4.57;100.00;98512.97;1735096;82;21542;-75
2022/11/16 07:22:10;;;;;;;68.83;30.23;;;;;;;4.61;100.00;98510.45;1734354;82;21597;-74
2022/11/16 07:24:43;;;;;;;67.90;29.10;;;;;;;4.63;100.00;98510.92;1702920;82;21438;-74
2022/11/16 07:27:13;;;;;;;73.87;27.52;;;;;;;4.65;100.00;98514.15;1738433;82;20947;-75
2022/11/16 07:29:45;;;;;;;63.95;26.42;;;;;;;4.68;100.00;98509.47;1717962;81;21003;-74
2022/11/16 07:32:33;;;;;;;62.03;26.20;;;;;;;4.74;100.00;98512.89;1653725;83;21001;-75
2022/11/16 07:35:16;;;;;;;66.75;25.95;;;;;;;4.70;100.00;98503.73;1589568;88;21237;-79
2022/11/16 07:37:45;;;;;;;63.38;24.95;;;;;;;4.70;100.00;98503.73;1646688;84;28656;-77
2022/11/16 07:40:20;;;;;;;69.42;27.48;;;;;;;4.66;100.00;98498.09;1666678;82;21108;-76
2022/11/16 07:42:50;;;;;;;65.00;26.20;;;;;;;4.65;100.00;98495.92;1701687;83;21003;-76
2022/11/16 07:45:26;;;;;;;60.12;27.65;;;;;;;4.68;100.00;98488.27;1735018;81;21160;-80
2022/11/16 07:47:57;;;;;;;58.85;26.20;;;;;;;4.78;100.00;98488.07;1734523;82;21006;-88
2022/11/16 07:50:45;;;;;;;68.52;28.65;;;;;;;4.78;100.00;98488.07;1729966;81;21039;-85
2022/11/16 07:53:17;;;;;;;61.35;27.10;;;;;;;4.82;100.00;98482.28;1699255;82;20892;-75
2022/11/16 07:55:52;;;;;;;66.40;29.27;;;;;;;4.85;100.00;98485.75;1659278;82;21547;-80
2022/11/16 07:58:23;;;;;;;65.12;29.25;;;;;;;4.93;100.00;98490.47;1690397;82;21221;-83
2022/11/16 08:01:11;;;;;;;63.70;27.67;;;;;;;4.99;100.00;98490.62;1665789;84;20952;-84
2022/11/16 08:03:42;;;;;;;64.05;25.43;;;;;;;5.05;100.00;98492.13;1712782;82;21009;-82
2022/11/16 08:06:18;;;;;;;58.98;27.65;;;;;;;5.14;100.00;98486.77;1718399;81;27172;-79
2022/11/16 08:08:47;;;;;;;65.65;28.50;;;;;;;5.19;100.00;98492.91;1688200;83;21023;-87
2022/11/16 08:11:14;;;;;;;67.17;28.52;;;;;;;5.21;100.00;98498.81;1731331;81;21151;-89
2022/11/16 08:13:45;;;;;;;57.23;29.15;;;;;;;5.22;100.00;98493.63;1725569;81;21010;-91
2022/11/16 08:16:16;;;;;;;65.50;29.37;;;;;;;5.28;100.00;98497.03;1724208;81;20935;-75
2022/11/16 08:18:47;;;;;;;64.92;30.45;;;;;;;5.28;100.00;98500.56;1688558;83;21087;-80
2022/11/16 08:21:17;;;;;;;62.90;29.60;;;;;;;5.26;100.00;98501.98;1695029;81;21007;-82
2022/11/16 08:23:47;;;;;;;;;;;;;;;5.25;100.00;98505.25;1667976;84;20971;-76
2022/11/16 08:26:17;;;;;;;59.03;27.48;;;;;;;5.24;100.00;98506.92;1710319;81;20121;-87
2022/11/16 08:28:52;;;;;;;;;;;;;;;5.24;100.00;98503.64;1731814;82;20975;-82
2022/11/16 08:31:29;;;;;;;59.48;27.85;;;;;;;5.21;100.00;98504.25;1732376;81;20480;-81
2022/11/16 08:34:00;;;;;;;60.88;27.13;;;;;;;5.21;100.00;98503.45;1742665;81;20927;-75
2022/11/16 08:36:40;;;;;;;56.13;26.55;;;;;;;5.23;100.00;98505.31;1715247;82;21542;-76
2022/11/16 08:39:12;;;;;;;64.05;26.35;;;;;;;5.24;100.00;98504.20;1638894;86;20928;-80
2022/11/16 08:41:40;;;;;;;56.73;26.73;;;;;;;5.24;100.00;98500.92;1713291;82;20912;-78
2022/11/16 08:44:14;;;;;;;62.62;28.52;;;;;;;5.25;100.00;98500.37;1672292;82;21009;-80
2022/11/16 08:46:44;;;;;;;64.45;28.45;;;;;;;5.24;100.00;98500.92;1692729;82;21080;-82
2022/11/16 08:49:30;;;;;;;62.13;26.45;;;;;;;5.24;100.00;98505.56;1717904;81;21176;-77
2022/11/16 08:52:00;;;;;;;63.20;27.05;;;;;;;5.22;100.00;98500.42;1732869;81;21455;-76
2022/11/16 08:54:36;;;;;;;61.10;28.23;;;;;;;5.22;100.00;98500.42;1704536;82;25234;-80
2022/11/16 08:57:04;;;;;;;;;;;;;;;5.20;100.00;98491.76;1740535;81;21021;-78
2022/11/16 08:59:35;;;;;;;67.53;30.32;;;;;;;5.19;100.00;98490.73;1703786;82;20500;-81
2022/11/16 09:02:24;;;;;;;72.90;33.10;;;;;;;5.17;100.00;98493.77;1706679;82;20887;-78
2022/11/16 09:04:45;;;;;;;69.22;32.70;;;;;;;5.16;100.00;98492.16;1733733;82;20959;-74
2022/11/16 09:07:18;;;;;;;70.42;31.07;;;;;;;5.18;100.00;98483.69;1688310;82;21529;-87
2022/11/16 09:09:48;;;;;;;;;;;;;;;5.20;100.00;98476.80;1688620;82;21085;-84
2022/11/16 09:12:18;;;;;;;64.62;29.82;;;;;;;5.20;100.00;98476.80;1684405;83;20124;-80
2022/11/16 09:14:46;;;;;;;75.95;32.53;;;;;;;5.19;100.00;98468.97;1691548;84;21923;-78
2022/11/16 09:17:19;;;;;;;68.12;31.10;;;;;;;5.19;100.00;98471.14;1667902;84;21013;-78
2022/11/16 09:19:50;;;;;;;71.25;32.33;;;;;;;5.18;100.00;98474.16;1665627;84;20916;-74
2022/11/16 09:22:21;;;;;;;77.65;32.90;;;;;;;5.17;100.00;98466.55;1686456;82;20997;-78
2022/11/16 09:24:52;;;;;;;72.72;32.03;;;;;;;5.17;100.00;98464.39;1667936;84;21436;-82
2022/11/16 09:27:22;;;;;;;72.95;30.82;;;;;;;5.17;100.00;98471.19;1691591;84;21037;-84
2022/11/16 09:29:51;;;;;;;73.52;33.30;;;;;;;5.13;100.00;98462.84;1682460;82;20996;-79
2022/11/16 09:32:20;;;;;;;66.75;30.48;;;;;;;5.13;100.00;98462.84;1695326;82;20928;-77
2022/11/16 09:34:50;;;;;;;73.52;32.58;;;;;;;5.15;100.00;98463.89;1733673;82;21471;-83
2022/11/16 09:37:19;;;;;;;81.40;32.42;;;;;;;5.14;100.00;98457.64;1710234;83;20906;-75
2022/11/16 09:39:45;;;;;;;78.28;33.08;;;;;;;5.15;100.00;98454.37;1680869;82;21328;-85
2022/11/16 09:42:41;;;;;;;75.32;29.60;;;;;;;5.14;100.00;98452.20;1660319;84;20920;-80
2022/11/16 09:45:32;;;;;;;60.63;28.42;;;;;;;5.12;100.00;98443.55;1690868;82;21009;-80
2022/11/16 09:48:01;;;;;;;119.87;42.17;;;;;;;5.11;100.00;98440.58;1695909;82;20965;-77
2022/11/16 09:50:40;;;;;;;111.00;41.30;;;;;;;5.08;100.00;98434.38;1725033;82;20979;-79
2022/11/16 09:53:39;;;;;;;116.95;43.20;;;;;;;5.11;100.00;98431.61;1691404;84;22013;-74
2022/11/16 09:56:11;;;;;;;77.72;30.12;;;;;;;5.11;100.00;98431.61;1672257;84;21057;-74
2022/11/16 09:59:07;;;;;;;84.75;31.60;;;;;;;5.13;100.00;98431.55;1691587;82;20870;-75
2022/11/16 10:01:51;;;;;;;76.33;28.57;;;;;;;5.12;100.00;98424.50;1722668;81;20919;-73
2022/11/16 10:04:37;;;;;;;81.20;31.07;;;;;;;5.11;100.00;98428.33;1680065;84;20962;-75
2022/11/16 10:07:34;;;;;;;77.27;28.77;;;;;;;5.14;100.00;98429.64;1637331;84;21018;-77
2022/11/16 10:10:01;;;;;;;64.07;25.77;;;;;;;5.14;100.00;98429.64;1694737;83;20991;-76
2022/11/16 10:12:45;;;;;;;77.42;29.65;;;;;;;5.14;100.00;98425.00;1688357;82;20881;-77
2022/11/16 10:15:30;;;;;;;82.05;30.60;;;;;;;5.09;100.00;98430.55;1691932;82;21055;-78
2022/11/16 10:18:20;;;;;;;79.90;29.67;;;;;;;5.06;100.00;98436.61;1671108;82;21085;-76
2022/11/16 10:21:07;;;;;;;70.15;28.42;;;;;;;5.10;100.00;98430.00;1676456;82;20913;-78
2022/11/16 10:24:13;;;;;;;97.22;41.55;;;;;;;5.10;100.00;98419.92;1678431;82;21003;-78
2022/11/16 10:27:00;;;;;;;83.42;35.63;;;;;;;5.09;100.00;98422.39;1670887;84;21503;-80
2022/11/16 10:29:47;;;;;;;78.20;33.40;;;;;;;5.08;100.00;98422.14;1694634;82;20966;-77
2022/11/16 10:32:24;;;;;;;75.80;32.20;;;;;;;5.08;100.00;98422.14;1730335;82;21058;-76
2022/11/16 10:35:16;;;;;;;62.40;26.97;;;;;;;5.06;100.00;98416.77;1695790;82;21168;-76
2022/11/16 10:37:51;;;;;;;77.10;30.62;;;;;;;5.06;100.00;98416.77;1693437;82;21609;-75
2022/11/16 10:40:32;;;;;;;66.25;28.55;;;;;;;5.03;100.00;98414.09;1670824;84;21010;-77
2022/11/16 10:43:21;;;;;;;67.58;26.80;;;;;;;5.01;100.00;98412.80;1668529;83;21570;-76
2022/11/16 10:46:32;;;;;;;68.45;30.12;;;;;;;5.02;100.00;98406.24;1667772;84;20947;-77
2022/11/16 10:49:23;;;;;;;71.80;29.98;;;;;;;5.05;100.00;98409.16;1677353;84;21310;-77
2022/11/16 10:51:53;;;;;;;58.58;25.60;;;;;;;5.06;100.00;98405.33;1639187;86;20878;-77
2022/11/16 10:54:23;;;;;;;56.20;23.77;;;;;;;5.05;100.00;98399.64;1674336;84;20952;-77
2022/11/16 10:56:58;;;;;;;61.88;26.82;;;;;;;5.05;100.00;98399.64;1708631;83;21438;-78
2022/11/16 10:59:48;;;;;;;58.90;26.30;;;;;;;5.05;100.00;98389.31;1672774;85;21074;-75
2022/11/16 11:02:36;;;;;;;53.65;22.20;;;;;;;5.07;100.00;98396.05;1664924;84;21452;-76
2022/11/16 11:05:29;;;;;;;58.17;24.30;;;;;;;5.07;100.00;98390.61;1709352;83;20918;-75
2022/11/16 11:08:06;;;;;;;61.55;25.12;;;;;;;5.04;100.00;98393.14;1704260;83;20975;-75
2022/11/16 11:10:39;;;;;;;;;;;;;;;5.00;100.00;98397.03;1672247;85;21000;-75
2022/11/16 11:13:17;;;;;;;;;;;;;;;4.98;100.00;98403.33;1613469;87;20129;-76
2022/11/16 11:15:46;;;;;;;58.00;22.87;;;;;;;4.95;100.00;98402.03;1673035;84;21261;-74
2022/11/16 11:18:28;;;;;;;50.80;21.57;;;;;;;4.94;100.00;98398.26;1648770;84;21011;-77
2022/11/16 11:21:23;;;;;;;85.45;36.03;;;;;;;4.94;100.00;98397.70;1704704;84;20987;-75
2022/11/16 11:23:56;;;;;;;68.10;28.73;;;;;;;4.95;100.00;98397.14;1659639;84;21035;-75
2022/11/16 11:26:36;;;;;;;58.83;24.80;;;;;;;4.93;100.00;98402.09;1699354;82;21557;-75
2022/11/16 11:29:31;;;;;;;50.83;22.27;;;;;;;4.91;100.00;98401.03;1666277;84;20887;-75
2022/11/16 11:32:06;;;;;;;55.58;22.35;;;;;;;4.91;100.00;98401.03;1672880;84;20994;-75
2022/11/16 11:34:44;;;;;;;51.73;21.50;;;;;;;4.89;100.00;98400.53;1698158;84;21077;-74
2022/11/16 11:37:29;;;;;;;54.30;22.95;;;;;;;4.88;100.00;98398.92;1709146;82;20923;-75
2022/11/16 11:40:25;;;;;;;55.28;22.90;;;;;;;4.88;100.00;98401.64;1697897;82;20950;-75
2022/11/16 11:43:04;;;;;;;57.85;25.00;;;;;;;4.88;100.00;98401.64;1724487;82;21268;-75
2022/11/16 11:45:50;;;;;;;63.45;25.17;;;;;;;4.88;100.00;98398.13;1684737;82;20898;-76
2022/11/16 11:48:46;;;;;;;72.70;27.22;;;;;;;4.88;100.00;98398.13;1675616;85;20957;-77
2022/11/16 11:51:18;;;;;;;61.30;25.82;;;;;;;4.93;100.00;98400.73;1666806;85;20950;-76
2022/11/16 11:53:59;;;;;;;78.92;30.48;;;;;;;4.92;100.00;98393.67;1683671;82;21668;-76
2022/11/16 11:56:29;;;;;;;75.35;29.85;;;;;;;4.91;100.00;98392.07;1730559;81;21099;-82
2022/11/16 11:59:02;;;;;;;72.72;28.23;;;;;;;4.90;100.00;98385.02;1638721;86;20881;-81
2022/11/16 12:02:18;;;;;;;67.32;29.27;;;;;;;4.89;100.00;98393.73;1668297;84;21017;-80
2022/11/16 12:05:13;;;;;;;54.27;23.10;;;;;;;4.91;100.00;98397.51;1632508;84;20980;-80
2022/11/16 12:07:49;;;;;;;49.33;20.27;;;;;;;4.91;100.00;98392.87;1649728;84;21603;-81
2022/11/16 12:10:25;;;;;;;44.18;19.37;;;;;;;4.90;100.00;98391.82;1687579;84;21209;-81
2022/11/16 12:13:14;;;;;;;55.17;22.35;;;;;;;4.90;100.00;98394.54;1663109;82;21348;-80
2022/11/16 12:16:00;;;;;;;43.70;19.45;;;;;;;4.86;100.00;98382.11;1665121;83;21097;-76
2022/11/16 12:18:41;;;;;;;51.02;20.25;;;;;;;4.87;100.00;98381.55;1698631;82;20954;-81
2022/11/16 12:21:32;;;;;;;43.98;19.37;;;;;;;4.84;100.00;98378.89;1737039;81;21478;-80
2022/11/16 12:24:37;;;;;;;44.60;19.90;;;;;;;4.85;100.00;98379.70;1738363;81;20911;-79
2022/11/16 12:27:42;;;;;;;43.92;19.82;;;;;;;4.86;100.00;98374.51;1633192;87;21034;-79
2022/11/16 12:30:20;;;;;;;55.05;23.10;;;;;;;4.87;100.00;98370.13;1695083;82;20985;-81
2022/11/16 12:33:02;;;;;;;56.73;25.35;;;;;;;4.87;100.00;98370.13;1702641;82;21511;-82
2022/11/16 12:36:02;;;;;;;51.85;21.65;;;;;;;4.87;100.00;98366.05;1685007;82;21084;-76
2022/11/16 12:38:38;;;;;;;49.55;21.23;;;;;;;4.87;100.00;98366.05;1648155;86;21233;-82
2022/11/16 12:41:27;;;;;;;47.60;19.27;;;;;;;4.86;100.00;98364.44;1639243;87;21016;-82